sensor_id;sensor_type;location;lat;lon;timestamp;P1;durP1;ratioP1;P2;durP2;ratioP2
46230;SDS011;31949;51.404;-0.038;2023-10-31T00:00:19;2.97;;;1.60;;
46230;SDS011;31949;51.404;-0.038;2023-10-31T00:02:46;3.72;;;1.55;;
46230;SDS011;31949;51.404;-0.038;2023-10-31T00:05:14;5.13;;;1.70;;
46230;SDS011;31949;51.404;-0.038;2023-10-31T00:07:44;1.60;;;1.23;;
46230;SDS011;31949;51.404;-0.038;2023-10-31T00:10:11;2.00;;;1.30;;
46230;SDS011;31949;51.404;-0.038;2023-10-31T00:12:38;2.17;;;1.33;;
46230;SDS011;31949;51.404;-0.038;2023-10-31T00:15:06;1.50;;;1.30;;
46230;SDS011;31949;51.404;-0.038;2023-10-31T00:17:33;3.25;;;1.73;;
46230;SDS011;31949;51.404;-0.038;2023-10-31T00:20:01;4.32;;;1.40;;
46230;SDS011;31949;51.404;-0.038;2023-10-31T00:22:28;3.42;;;1.30;;
46230;SDS011;31949;51.404;-0.038;2023-10-31T00:24:55;2.42;;;1.15;;
46230;SDS011;31949;51.404;-0.038;2023-10-31T00:27:23;2.65;;;1.60;;
46230;SDS011;31949;51.404;-0.038;2023-10-31T00:29:50;2.92;;;1.50;;
46230;SDS011;31949;51.404;-0.038;2023-10-31T00:32:17;1.58;;;1.40;;
46230;SDS011;31949;51.404;-0.038;2023-10-31T00:34:44;1.52;;;0.93;;
46230;SDS011;31949;51.404;-0.038;2023-10-31T00:37:12;2.15;;;1.50;;
46230;SDS011;31949;51.404;-0.038;2023-10-31T00:39:39;3.10;;;1.70;;
46230;SDS011;31949;51.404;-0.038;2023-10-31T00:42:06;2.35;;;1.55;;
46230;SDS011;31949;51.404;-0.038;2023-10-31T00:44:35;5.13;;;1.23;;
46230;SDS011;31949;51.404;-0.038;2023-10-31T00:47:02;3.58;;;1.20;;
46230;SDS011;31949;51.404;-0.038;2023-10-31T00:49:32;2.63;;;1.30;;
46230;SDS011;31949;51.404;-0.038;2023-10-31T00:51:59;1.98;;;1.10;;
46230;SDS011;31949;51.404;-0.038;2023-10-31T00:54:26;4.13;;;2.15;;
46230;SDS011;31949;51.404;-0.038;2023-10-31T00:56:53;2.83;;;1.20;;
46230;SDS011;31949;51.404;-0.038;2023-10-31T00:59:21;2.22;;;1.45;;
46230;SDS011;31949;51.404;-0.038;2023-10-31T01:01:48;2.38;;;1.17;;
46230;SDS011;31949;51.404;-0.038;2023-10-31T01:04:16;6.05;;;1.25;;
46230;SDS011;31949;51.404;-0.038;2023-10-31T01:06:43;2.63;;;1.70;;
46230;SDS011;31949;51.404;-0.038;2023-10-31T01:09:11;2.78;;;1.20;;
46230;SDS011;31949;51.404;-0.038;2023-10-31T01:11:39;2.13;;;1.20;;
46230;SDS011;31949;51.404;-0.038;2023-10-31T01:14:07;1.70;;;1.08;;
46230;SDS011;31949;51.404;-0.038;2023-10-31T01:16:34;1.40;;;0.98;;
46230;SDS011;31949;51.404;-0.038;2023-10-31T01:19:01;2.05;;;1.10;;
46230;SDS011;31949;51.404;-0.038;2023-10-31T01:21:30;1.17;;;1.00;;
46230;SDS011;31949;51.404;-0.038;2023-10-31T01:23:58;3.42;;;1.33;;
46230;SDS011;31949;51.404;-0.038;2023-10-31T01:26:25;2.10;;;1.23;;
46230;SDS011;31949;51.404;-0.038;2023-10-31T01:28:53;2.47;;;1.25;;
46230;SDS011;31949;51.404;-0.038;2023-10-31T01:31:20;4.28;;;2.28;;
46230;SDS011;31949;51.404;-0.038;2023-10-31T01:33:47;2.10;;;1.13;;
46230;SDS011;31949;51.404;-0.038;2023-10-31T01:36:15;3.08;;;1.35;;
46230;SDS011;31949;51.404;-0.038;2023-10-31T01:38:45;3.40;;;1.58;;
46230;SDS011;31949;51.404;-0.038;2023-10-31T01:41:13;2.72;;;1.25;;
46230;SDS011;31949;51.404;-0.038;2023-10-31T01:43:40;4.20;;;1.48;;
46230;SDS011;31949;51.404;-0.038;2023-10-31T01:46:08;4.00;;;1.58;;
46230;SDS011;31949;51.404;-0.038;2023-10-31T01:48:36;1.35;;;1.20;;
46230;SDS011;31949;51.404;-0.038;2023-10-31T01:51:03;1.30;;;1.08;;
46230;SDS011;31949;51.404;-0.038;2023-10-31T01:53:31;2.17;;;1.33;;
46230;SDS011;31949;51.404;-0.038;2023-10-31T01:56:00;1.30;;;0.90;;
46230;SDS011;31949;51.404;-0.038;2023-10-31T01:58:30;2.28;;;1.17;;
46230;SDS011;31949;51.404;-0.038;2023-10-31T02:01:00;3.55;;;1.20;;
46230;SDS011;31949;51.404;-0.038;2023-10-31T02:03:28;2.97;;;1.60;;
46230;SDS011;31949;51.404;-0.038;2023-10-31T02:05:56;2.17;;;1.30;;
46230;SDS011;31949;51.404;-0.038;2023-10-31T02:08:24;1.85;;;1.20;;
46230;SDS011;31949;51.404;-0.038;2023-10-31T02:10:52;2.05;;;1.08;;
46230;SDS011;31949;51.404;-0.038;2023-10-31T02:13:21;1.48;;;1.30;;
46230;SDS011;31949;51.404;-0.038;2023-10-31T02:15:49;5.07;;;1.35;;
46230;SDS011;31949;51.404;-0.038;2023-10-31T02:18:16;1.98;;;1.27;;
46230;SDS011;31949;51.404;-0.038;2023-10-31T02:20:44;1.88;;;1.08;;
46230;SDS011;31949;51.404;-0.038;2023-10-31T02:23:11;2.28;;;1.15;;
46230;SDS011;31949;51.404;-0.038;2023-10-31T02:25:39;1.77;;;1.15;;
46230;SDS011;31949;51.404;-0.038;2023-10-31T02:28:06;2.67;;;1.40;;
46230;SDS011;31949;51.404;-0.038;2023-10-31T02:30:33;3.03;;;1.65;;
46230;SDS011;31949;51.404;-0.038;2023-10-31T02:33:02;1.10;;;1.00;;
46230;SDS011;31949;51.404;-0.038;2023-10-31T02:35:29;3.65;;;1.25;;
46230;SDS011;31949;51.404;-0.038;2023-10-31T02:37:56;2.55;;;1.30;;
46230;SDS011;31949;51.404;-0.038;2023-10-31T02:40:24;3.97;;;1.35;;
46230;SDS011;31949;51.404;-0.038;2023-10-31T02:42:51;2.00;;;1.33;;
46230;SDS011;31949;51.404;-0.038;2023-10-31T02:45:18;3.13;;;1.42;;
46230;SDS011;31949;51.404;-0.038;2023-10-31T02:47:45;2.35;;;1.40;;
46230;SDS011;31949;51.404;-0.038;2023-10-31T02:50:13;2.00;;;1.65;;
46230;SDS011;31949;51.404;-0.038;2023-10-31T02:52:41;2.25;;;1.73;;
46230;SDS011;31949;51.404;-0.038;2023-10-31T02:55:08;2.30;;;1.55;;
46230;SDS011;31949;51.404;-0.038;2023-10-31T02:57:35;2.92;;;1.50;;
46230;SDS011;31949;51.404;-0.038;2023-10-31T03:00:03;2.60;;;1.10;;
46230;SDS011;31949;51.404;-0.038;2023-10-31T03:02:31;1.90;;;1.30;;
46230;SDS011;31949;51.404;-0.038;2023-10-31T03:04:58;3.05;;;1.05;;
46230;SDS011;31949;51.404;-0.038;2023-10-31T03:07:25;1.65;;;1.20;;
46230;SDS011;31949;51.404;-0.038;2023-10-31T03:09:53;2.53;;;1.73;;
46230;SDS011;31949;51.404;-0.038;2023-10-31T03:12:20;2.22;;;1.67;;
46230;SDS011;31949;51.404;-0.038;2023-10-31T03:14:48;2.20;;;1.50;;
46230;SDS011;31949;51.404;-0.038;2023-10-31T03:17:16;1.98;;;1.58;;
46230;SDS011;31949;51.404;-0.038;2023-10-31T03:19:44;2.72;;;1.50;;
46230;SDS011;31949;51.404;-0.038;2023-10-31T03:22:11;1.67;;;1.42;;
46230;SDS011;31949;51.404;-0.038;2023-10-31T03:24:40;1.50;;;1.40;;
46230;SDS011;31949;51.404;-0.038;2023-10-31T03:27:07;2.40;;;1.70;;
46230;SDS011;31949;51.404;-0.038;2023-10-31T03:29:35;1.98;;;1.63;;
46230;SDS011;31949;51.404;-0.038;2023-10-31T03:32:02;2.97;;;1.60;;
46230;SDS011;31949;51.404;-0.038;2023-10-31T03:34:31;1.88;;;1.60;;
46230;SDS011;31949;51.404;-0.038;2023-10-31T03:36:59;1.90;;;1.27;;
46230;SDS011;31949;51.404;-0.038;2023-10-31T03:39:26;1.60;;;1.40;;
46230;SDS011;31949;51.404;-0.038;2023-10-31T03:41:54;3.22;;;1.55;;
46230;SDS011;31949;51.404;-0.038;2023-10-31T03:44:23;4.15;;;1.40;;
46230;SDS011;31949;51.404;-0.038;2023-10-31T03:46:51;4.82;;;1.70;;
46230;SDS011;31949;51.404;-0.038;2023-10-31T03:49:18;2.30;;;1.55;;
46230;SDS011;31949;51.404;-0.038;2023-10-31T03:51:45;2.60;;;1.92;;
46230;SDS011;31949;51.404;-0.038;2023-10-31T03:54:13;2.53;;;1.90;;
46230;SDS011;31949;51.404;-0.038;2023-10-31T03:56:41;2.08;;;1.50;;
46230;SDS011;31949;51.404;-0.038;2023-10-31T03:59:09;4.70;;;1.65;;
46230;SDS011;31949;51.404;-0.038;2023-10-31T04:01:37;4.63;;;2.10;;
46230;SDS011;31949;51.404;-0.038;2023-10-31T04:04:04;3.15;;;2.05;;
46230;SDS011;31949;51.404;-0.038;2023-10-31T04:06:32;3.80;;;2.10;;
46230;SDS011;31949;51.404;-0.038;2023-10-31T04:08:59;3.20;;;2.03;;
46230;SDS011;31949;51.404;-0.038;2023-10-31T04:11:26;4.45;;;2.70;;
46230;SDS011;31949;51.404;-0.038;2023-10-31T04:13:54;2.65;;;1.92;;
46230;SDS011;31949;51.404;-0.038;2023-10-31T04:16:21;3.75;;;2.33;;
46230;SDS011;31949;51.404;-0.038;2023-10-31T04:18:48;3.88;;;2.10;;
46230;SDS011;31949;51.404;-0.038;2023-10-31T04:21:15;2.85;;;2.20;;
46230;SDS011;31949;51.404;-0.038;2023-10-31T04:23:43;3.20;;;2.50;;
46230;SDS011;31949;51.404;-0.038;2023-10-31T04:26:10;5.72;;;2.80;;
46230;SDS011;31949;51.404;-0.038;2023-10-31T04:28:37;3.85;;;2.53;;
46230;SDS011;31949;51.404;-0.038;2023-10-31T04:31:06;4.10;;;2.53;;
46230;SDS011;31949;51.404;-0.038;2023-10-31T04:33:33;3.03;;;2.45;;
46230;SDS011;31949;51.404;-0.038;2023-10-31T04:36:00;3.15;;;2.13;;
46230;SDS011;31949;51.404;-0.038;2023-10-31T04:38:28;4.35;;;2.65;;
46230;SDS011;31949;51.404;-0.038;2023-10-31T04:40:56;3.10;;;2.47;;
46230;SDS011;31949;51.404;-0.038;2023-10-31T04:43:23;5.18;;;2.90;;
46230;SDS011;31949;51.404;-0.038;2023-10-31T04:45:50;4.28;;;3.00;;
46230;SDS011;31949;51.404;-0.038;2023-10-31T04:48:17;5.70;;;3.13;;
46230;SDS011;31949;51.404;-0.038;2023-10-31T04:50:45;5.97;;;3.70;;
46230;SDS011;31949;51.404;-0.038;2023-10-31T04:53:12;4.15;;;3.08;;
46230;SDS011;31949;51.404;-0.038;2023-10-31T04:55:39;5.30;;;3.33;;
46230;SDS011;31949;51.404;-0.038;2023-10-31T04:58:07;3.65;;;2.80;;
46230;SDS011;31949;51.404;-0.038;2023-10-31T05:00:34;6.57;;;3.25;;
46230;SDS011;31949;51.404;-0.038;2023-10-31T05:03:01;6.10;;;2.75;;
46230;SDS011;31949;51.404;-0.038;2023-10-31T05:05:29;5.45;;;2.92;;
46230;SDS011;31949;51.404;-0.038;2023-10-31T05:07:56;4.82;;;3.22;;
46230;SDS011;31949;51.404;-0.038;2023-10-31T05:10:24;3.90;;;2.95;;
46230;SDS011;31949;51.404;-0.038;2023-10-31T05:12:52;5.22;;;2.70;;
46230;SDS011;31949;51.404;-0.038;2023-10-31T05:15:19;3.85;;;2.10;;
46230;SDS011;31949;51.404;-0.038;2023-10-31T05:17:46;5.38;;;2.58;;
46230;SDS011;31949;51.404;-0.038;2023-10-31T05:20:14;2.95;;;2.47;;
46230;SDS011;31949;51.404;-0.038;2023-10-31T05:22:41;2.83;;;2.28;;
46230;SDS011;31949;51.404;-0.038;2023-10-31T05:25:09;4.03;;;2.10;;
46230;SDS011;31949;51.404;-0.038;2023-10-31T05:27:36;4.20;;;2.50;;
46230;SDS011;31949;51.404;-0.038;2023-10-31T05:30:03;2.47;;;1.90;;
46230;SDS011;31949;51.404;-0.038;2023-10-31T05:32:31;2.85;;;2.40;;
46230;SDS011;31949;51.404;-0.038;2023-10-31T05:34:58;4.28;;;2.75;;
46230;SDS011;31949;51.404;-0.038;2023-10-31T05:37:26;3.42;;;2.03;;
46230;SDS011;31949;51.404;-0.038;2023-10-31T05:39:53;3.58;;;2.50;;
46230;SDS011;31949;51.404;-0.038;2023-10-31T05:42:20;3.55;;;2.70;;
46230;SDS011;31949;51.404;-0.038;2023-10-31T05:44:48;4.72;;;3.20;;
46230;SDS011;31949;51.404;-0.038;2023-10-31T05:47:15;4.32;;;2.40;;
46230;SDS011;31949;51.404;-0.038;2023-10-31T05:49:43;6.35;;;3.50;;
46230;SDS011;31949;51.404;-0.038;2023-10-31T05:52:10;4.55;;;2.60;;
46230;SDS011;31949;51.404;-0.038;2023-10-31T05:54:38;4.65;;;2.95;;
46230;SDS011;31949;51.404;-0.038;2023-10-31T05:57:05;3.17;;;2.75;;
46230;SDS011;31949;51.404;-0.038;2023-10-31T05:59:32;4.88;;;3.28;;
46230;SDS011;31949;51.404;-0.038;2023-10-31T06:01:59;4.65;;;2.78;;
46230;SDS011;31949;51.404;-0.038;2023-10-31T06:04:27;3.38;;;2.13;;
46230;SDS011;31949;51.404;-0.038;2023-10-31T06:06:54;5.28;;;3.15;;
46230;SDS011;31949;51.404;-0.038;2023-10-31T06:09:21;5.03;;;3.08;;
46230;SDS011;31949;51.404;-0.038;2023-10-31T06:11:48;5.65;;;3.08;;
46230;SDS011;31949;51.404;-0.038;2023-10-31T06:14:15;4.70;;;2.50;;
46230;SDS011;31949;51.404;-0.038;2023-10-31T06:16:43;3.80;;;2.38;;
46230;SDS011;31949;51.404;-0.038;2023-10-31T06:19:11;5.05;;;3.63;;
46230;SDS011;31949;51.404;-0.038;2023-10-31T06:21:38;5.90;;;2.90;;
46230;SDS011;31949;51.404;-0.038;2023-10-31T06:24:06;5.55;;;2.78;;
46230;SDS011;31949;51.404;-0.038;2023-10-31T06:26:34;4.72;;;3.40;;
46230;SDS011;31949;51.404;-0.038;2023-10-31T06:29:01;3.42;;;2.70;;
46230;SDS011;31949;51.404;-0.038;2023-10-31T06:31:34;5.55;;;3.08;;
46230;SDS011;31949;51.404;-0.038;2023-10-31T06:34:01;4.53;;;2.63;;
46230;SDS011;31949;51.404;-0.038;2023-10-31T06:36:29;6.35;;;3.15;;
46230;SDS011;31949;51.404;-0.038;2023-10-31T06:38:56;4.63;;;2.50;;
46230;SDS011;31949;51.404;-0.038;2023-10-31T06:41:23;2.72;;;2.22;;
46230;SDS011;31949;51.404;-0.038;2023-10-31T06:43:51;3.80;;;2.20;;
46230;SDS011;31949;51.404;-0.038;2023-10-31T06:46:18;4.65;;;2.80;;
46230;SDS011;31949;51.404;-0.038;2023-10-31T06:48:45;4.75;;;2.90;;
46230;SDS011;31949;51.404;-0.038;2023-10-31T06:51:12;4.30;;;2.75;;
46230;SDS011;31949;51.404;-0.038;2023-10-31T06:53:40;3.95;;;2.83;;
46230;SDS011;31949;51.404;-0.038;2023-10-31T06:56:07;7.53;;;3.20;;
46230;SDS011;31949;51.404;-0.038;2023-10-31T06:58:34;6.30;;;3.13;;
46230;SDS011;31949;51.404;-0.038;2023-10-31T07:01:02;6.20;;;3.72;;
46230;SDS011;31949;51.404;-0.038;2023-10-31T07:03:30;6.18;;;3.55;;
46230;SDS011;31949;51.404;-0.038;2023-10-31T07:05:57;5.55;;;3.63;;
46230;SDS011;31949;51.404;-0.038;2023-10-31T07:08:28;5.27;;;3.00;;
46230;SDS011;31949;51.404;-0.038;2023-10-31T07:10:56;7.53;;;3.22;;
46230;SDS011;31949;51.404;-0.038;2023-10-31T07:13:27;2.97;;;2.60;;
46230;SDS011;31949;51.404;-0.038;2023-10-31T07:15:54;5.10;;;4.07;;
46230;SDS011;31949;51.404;-0.038;2023-10-31T07:18:21;3.95;;;2.53;;
46230;SDS011;31949;51.404;-0.038;2023-10-31T07:20:48;3.58;;;2.40;;
46230;SDS011;31949;51.404;-0.038;2023-10-31T07:23:16;3.50;;;2.00;;
46230;SDS011;31949;51.404;-0.038;2023-10-31T07:25:43;4.38;;;2.00;;
46230;SDS011;31949;51.404;-0.038;2023-10-31T07:28:10;3.33;;;2.28;;
46230;SDS011;31949;51.404;-0.038;2023-10-31T07:30:37;3.17;;;1.90;;
46230;SDS011;31949;51.404;-0.038;2023-10-31T07:33:04;2.97;;;2.08;;
46230;SDS011;31949;51.404;-0.038;2023-10-31T07:35:32;2.28;;;1.60;;
46230;SDS011;31949;51.404;-0.038;2023-10-31T07:37:59;4.70;;;2.33;;
46230;SDS011;31949;51.404;-0.038;2023-10-31T07:40:26;2.08;;;1.48;;
46230;SDS011;31949;51.404;-0.038;2023-10-31T07:42:54;3.05;;;1.83;;
46230;SDS011;31949;51.404;-0.038;2023-10-31T07:45:21;3.78;;;2.22;;
46230;SDS011;31949;51.404;-0.038;2023-10-31T07:47:48;4.22;;;1.17;;
46230;SDS011;31949;51.404;-0.038;2023-10-31T07:50:15;3.85;;;0.90;;
46230;SDS011;31949;51.404;-0.038;2023-10-31T07:52:43;4.80;;;1.08;;
46230;SDS011;31949;51.404;-0.038;2023-10-31T07:55:12;1.75;;;0.90;;
46230;SDS011;31949;51.404;-0.038;2023-10-31T07:57:41;5.70;;;1.27;;
46230;SDS011;31949;51.404;-0.038;2023-10-31T08:00:11;3.92;;;1.10;;
46230;SDS011;31949;51.404;-0.038;2023-10-31T08:02:39;5.35;;;1.08;;
46230;SDS011;31949;51.404;-0.038;2023-10-31T08:05:06;2.50;;;1.02;;
46230;SDS011;31949;51.404;-0.038;2023-10-31T08:07:34;1.63;;;1.00;;
46230;SDS011;31949;51.404;-0.038;2023-10-31T08:10:02;2.97;;;1.08;;
46230;SDS011;31949;51.404;-0.038;2023-10-31T08:12:30;5.57;;;1.17;;
46230;SDS011;31949;51.404;-0.038;2023-10-31T08:14:57;3.38;;;1.00;;
46230;SDS011;31949;51.404;-0.038;2023-10-31T08:17:29;7.50;;;1.27;;
46230;SDS011;31949;51.404;-0.038;2023-10-31T08:19:56;3.17;;;1.10;;
46230;SDS011;31949;51.404;-0.038;2023-10-31T08:22:23;4.38;;;1.33;;
46230;SDS011;31949;51.404;-0.038;2023-10-31T08:24:50;3.85;;;1.10;;
46230;SDS011;31949;51.404;-0.038;2023-10-31T08:27:18;3.70;;;1.55;;
46230;SDS011;31949;51.404;-0.038;2023-10-31T08:29:45;3.47;;;0.90;;
46230;SDS011;31949;51.404;-0.038;2023-10-31T08:32:12;2.63;;;0.90;;
46230;SDS011;31949;51.404;-0.038;2023-10-31T08:34:40;4.70;;;1.00;;
46230;SDS011;31949;51.404;-0.038;2023-10-31T08:37:07;3.33;;;1.08;;
46230;SDS011;31949;51.404;-0.038;2023-10-31T08:39:34;3.47;;;0.98;;
46230;SDS011;31949;51.404;-0.038;2023-10-31T08:42:01;3.95;;;0.80;;
46230;SDS011;31949;51.404;-0.038;2023-10-31T08:44:29;2.90;;;0.80;;
46230;SDS011;31949;51.404;-0.038;2023-10-31T08:46:56;3.50;;;1.08;;
46230;SDS011;31949;51.404;-0.038;2023-10-31T08:49:24;5.03;;;1.60;;
46230;SDS011;31949;51.404;-0.038;2023-10-31T08:51:51;1.65;;;0.90;;
46230;SDS011;31949;51.404;-0.038;2023-10-31T08:54:18;4.82;;;0.70;;
46230;SDS011;31949;51.404;-0.038;2023-10-31T08:56:45;2.67;;;1.13;;
46230;SDS011;31949;51.404;-0.038;2023-10-31T08:59:13;4.15;;;0.80;;
46230;SDS011;31949;51.404;-0.038;2023-10-31T09:01:40;2.72;;;1.52;;
46230;SDS011;31949;51.404;-0.038;2023-10-31T09:04:07;3.13;;;0.77;;
46230;SDS011;31949;51.404;-0.038;2023-10-31T09:06:34;3.97;;;1.73;;
46230;SDS011;31949;51.404;-0.038;2023-10-31T09:09:02;3.05;;;1.35;;
46230;SDS011;31949;51.404;-0.038;2023-10-31T09:11:30;3.00;;;1.00;;
46230;SDS011;31949;51.404;-0.038;2023-10-31T09:13:57;8.82;;;1.10;;
46230;SDS011;31949;51.404;-0.038;2023-10-31T09:16:25;2.78;;;1.23;;
46230;SDS011;31949;51.404;-0.038;2023-10-31T09:18:52;3.42;;;1.23;;
46230;SDS011;31949;51.404;-0.038;2023-10-31T09:21:19;5.30;;;1.13;;
46230;SDS011;31949;51.404;-0.038;2023-10-31T09:23:46;6.47;;;1.35;;
46230;SDS011;31949;51.404;-0.038;2023-10-31T09:26:13;2.38;;;1.15;;
46230;SDS011;31949;51.404;-0.038;2023-10-31T09:28:41;4.32;;;1.35;;
46230;SDS011;31949;51.404;-0.038;2023-10-31T09:31:19;2.70;;;1.30;;
46230;SDS011;31949;51.404;-0.038;2023-10-31T09:33:46;3.80;;;1.27;;
46230;SDS011;31949;51.404;-0.038;2023-10-31T09:36:13;5.53;;;1.80;;
46230;SDS011;31949;51.404;-0.038;2023-10-31T09:38:41;3.55;;;0.90;;
46230;SDS011;31949;51.404;-0.038;2023-10-31T09:41:08;5.63;;;1.05;;
46230;SDS011;31949;51.404;-0.038;2023-10-31T09:43:36;5.68;;;1.30;;
46230;SDS011;31949;51.404;-0.038;2023-10-31T09:46:04;2.70;;;1.30;;
46230;SDS011;31949;51.404;-0.038;2023-10-31T09:48:32;7.45;;;1.55;;
46230;SDS011;31949;51.404;-0.038;2023-10-31T09:51:00;4.47;;;2.38;;
46230;SDS011;31949;51.404;-0.038;2023-10-31T09:53:28;4.40;;;1.60;;
46230;SDS011;31949;51.404;-0.038;2023-10-31T09:55:58;7.68;;;2.30;;
46230;SDS011;31949;51.404;-0.038;2023-10-31T09:58:26;5.93;;;2.70;;
46230;SDS011;31949;51.404;-0.038;2023-10-31T10:00:53;6.22;;;2.50;;
46230;SDS011;31949;51.404;-0.038;2023-10-31T10:03:20;3.17;;;1.83;;
46230;SDS011;31949;51.404;-0.038;2023-10-31T10:05:49;3.25;;;2.05;;
46230;SDS011;31949;51.404;-0.038;2023-10-31T10:08:16;6.47;;;2.53;;
46230;SDS011;31949;51.404;-0.038;2023-10-31T10:10:44;6.72;;;3.03;;
46230;SDS011;31949;51.404;-0.038;2023-10-31T10:13:11;4.38;;;3.10;;
46230;SDS011;31949;51.404;-0.038;2023-10-31T10:15:43;6.72;;;2.47;;
46230;SDS011;31949;51.404;-0.038;2023-10-31T10:18:24;3.92;;;2.70;;
46230;SDS011;31949;51.404;-0.038;2023-10-31T10:20:56;3.38;;;2.25;;
46230;SDS011;31949;51.404;-0.038;2023-10-31T10:23:28;6.07;;;2.78;;
46230;SDS011;31949;51.404;-0.038;2023-10-31T10:25:57;4.93;;;2.75;;
46230;SDS011;31949;51.404;-0.038;2023-10-31T10:28:27;5.57;;;2.60;;
46230;SDS011;31949;51.404;-0.038;2023-10-31T10:30:56;7.15;;;2.72;;
46230;SDS011;31949;51.404;-0.038;2023-10-31T10:33:23;4.60;;;2.25;;
46230;SDS011;31949;51.404;-0.038;2023-10-31T10:35:50;4.03;;;2.22;;
46230;SDS011;31949;51.404;-0.038;2023-10-31T10:38:18;5.38;;;2.45;;
46230;SDS011;31949;51.404;-0.038;2023-10-31T10:40:47;4.72;;;2.20;;
46230;SDS011;31949;51.404;-0.038;2023-10-31T10:43:23;4.75;;;2.88;;
46230;SDS011;31949;51.404;-0.038;2023-10-31T10:45:58;6.45;;;2.58;;
46230;SDS011;31949;51.404;-0.038;2023-10-31T10:48:26;5.22;;;2.40;;
46230;SDS011;31949;51.404;-0.038;2023-10-31T10:50:59;5.45;;;2.42;;
46230;SDS011;31949;51.404;-0.038;2023-10-31T10:53:48;3.53;;;2.22;;
46230;SDS011;31949;51.404;-0.038;2023-10-31T10:56:31;4.75;;;1.98;;
46230;SDS011;31949;51.404;-0.038;2023-10-31T10:59:08;4.70;;;1.83;;
46230;SDS011;31949;51.404;-0.038;2023-10-31T11:01:46;7.68;;;2.30;;
46230;SDS011;31949;51.404;-0.038;2023-10-31T11:04:15;3.45;;;2.25;;
46230;SDS011;31949;51.404;-0.038;2023-10-31T11:06:44;6.68;;;2.47;;
46230;SDS011;31949;51.404;-0.038;2023-10-31T11:09:11;4.55;;;2.10;;
46230;SDS011;31949;51.404;-0.038;2023-10-31T11:11:40;2.42;;;1.77;;
46230;SDS011;31949;51.404;-0.038;2023-10-31T11:14:08;6.18;;;1.85;;
46230;SDS011;31949;51.404;-0.038;2023-10-31T11:16:44;1.80;;;1.27;;
46230;SDS011;31949;51.404;-0.038;2023-10-31T11:19:15;4.75;;;2.05;;
46230;SDS011;31949;51.404;-0.038;2023-10-31T11:24:40;5.38;;;2.00;;
46230;SDS011;31949;51.404;-0.038;2023-10-31T11:27:08;3.70;;;1.33;;
46230;SDS011;31949;51.404;-0.038;2023-10-31T11:29:36;4.63;;;1.30;;
46230;SDS011;31949;51.404;-0.038;2023-10-31T11:32:07;2.53;;;1.30;;
46230;SDS011;31949;51.404;-0.038;2023-10-31T11:34:37;5.72;;;2.13;;
46230;SDS011;31949;51.404;-0.038;2023-10-31T11:42:48;3.15;;;1.40;;
46230;SDS011;31949;51.404;-0.038;2023-10-31T11:45:30;3.83;;;1.40;;
46230;SDS011;31949;51.404;-0.038;2023-10-31T11:48:04;5.57;;;1.02;;
46230;SDS011;31949;51.404;-0.038;2023-10-31T11:50:32;3.90;;;1.60;;
46230;SDS011;31949;51.404;-0.038;2023-10-31T11:53:07;2.72;;;1.42;;
46230;SDS011;31949;51.404;-0.038;2023-10-31T11:55:40;4.07;;;1.52;;
46230;SDS011;31949;51.404;-0.038;2023-10-31T11:58:21;5.53;;;1.60;;
46230;SDS011;31949;51.404;-0.038;2023-10-31T12:00:50;7.00;;;1.73;;
46230;SDS011;31949;51.404;-0.038;2023-10-31T12:03:19;4.20;;;1.25;;
46230;SDS011;31949;51.404;-0.038;2023-10-31T12:05:54;3.42;;;1.48;;
46230;SDS011;31949;51.404;-0.038;2023-10-31T12:08:42;2.75;;;1.25;;
46230;SDS011;31949;51.404;-0.038;2023-10-31T12:13:38;4.18;;;1.42;;
46230;SDS011;31949;51.404;-0.038;2023-10-31T12:16:08;3.78;;;1.60;;
46230;SDS011;31949;51.404;-0.038;2023-10-31T12:18:36;5.93;;;1.38;;
46230;SDS011;31949;51.404;-0.038;2023-10-31T12:21:07;4.45;;;1.30;;
46230;SDS011;31949;51.404;-0.038;2023-10-31T12:23:35;3.28;;;1.20;;
46230;SDS011;31949;51.404;-0.038;2023-10-31T12:26:03;2.72;;;1.35;;
46230;SDS011;31949;51.404;-0.038;2023-10-31T12:28:30;4.55;;;1.50;;
46230;SDS011;31949;51.404;-0.038;2023-10-31T12:30:58;3.75;;;1.25;;
46230;SDS011;31949;51.404;-0.038;2023-10-31T12:33:26;5.93;;;1.98;;
46230;SDS011;31949;51.404;-0.038;2023-10-31T12:35:59;2.03;;;1.02;;
46230;SDS011;31949;51.404;-0.038;2023-10-31T12:38:27;4.20;;;1.40;;
46230;SDS011;31949;51.404;-0.038;2023-10-31T12:40:55;3.35;;;1.52;;
46230;SDS011;31949;51.404;-0.038;2023-10-31T12:43:24;4.53;;;1.52;;
46230;SDS011;31949;51.404;-0.038;2023-10-31T12:45:52;5.72;;;1.70;;
46230;SDS011;31949;51.404;-0.038;2023-10-31T12:48:23;3.47;;;1.30;;
46230;SDS011;31949;51.404;-0.038;2023-10-31T12:50:55;2.53;;;1.20;;
46230;SDS011;31949;51.404;-0.038;2023-10-31T12:53:35;5.10;;;1.60;;
46230;SDS011;31949;51.404;-0.038;2023-10-31T12:56:02;3.53;;;1.45;;
46230;SDS011;31949;51.404;-0.038;2023-10-31T12:58:30;3.80;;;1.48;;
46230;SDS011;31949;51.404;-0.038;2023-10-31T13:00:57;1.00;;;0.90;;
46230;SDS011;31949;51.404;-0.038;2023-10-31T13:03:25;4.25;;;1.40;;
46230;SDS011;31949;51.404;-0.038;2023-10-31T13:05:53;4.85;;;0.90;;
46230;SDS011;31949;51.404;-0.038;2023-10-31T13:08:22;1.25;;;0.82;;
46230;SDS011;31949;51.404;-0.038;2023-10-31T13:10:49;1.10;;;0.60;;
46230;SDS011;31949;51.404;-0.038;2023-10-31T13:13:16;5.75;;;0.77;;
46230;SDS011;31949;51.404;-0.038;2023-10-31T13:15:43;1.77;;;0.50;;
46230;SDS011;31949;51.404;-0.038;2023-10-31T13:18:11;1.73;;;0.50;;
46230;SDS011;31949;51.404;-0.038;2023-10-31T13:20:38;3.00;;;0.43;;
46230;SDS011;31949;51.404;-0.038;2023-10-31T13:23:05;2.58;;;1.00;;
46230;SDS011;31949;51.404;-0.038;2023-10-31T13:25:33;3.60;;;1.08;;
46230;SDS011;31949;51.404;-0.038;2023-10-31T13:28:01;3.53;;;1.33;;
46230;SDS011;31949;51.404;-0.038;2023-10-31T13:30:28;2.45;;;1.00;;
46230;SDS011;31949;51.404;-0.038;2023-10-31T13:32:56;1.85;;;1.13;;
46230;SDS011;31949;51.404;-0.038;2023-10-31T13:35:24;3.20;;;1.65;;
46230;SDS011;31949;51.404;-0.038;2023-10-31T13:37:51;8.15;;;1.50;;
46230;SDS011;31949;51.404;-0.038;2023-10-31T13:40:18;2.25;;;1.13;;
46230;SDS011;31949;51.404;-0.038;2023-10-31T13:42:46;1.50;;;0.60;;
46230;SDS011;31949;51.404;-0.038;2023-10-31T13:45:13;0.93;;;0.52;;
46230;SDS011;31949;51.404;-0.038;2023-10-31T13:47:40;1.77;;;0.90;;
46230;SDS011;31949;51.404;-0.038;2023-10-31T13:50:08;1.25;;;0.90;;
46230;SDS011;31949;51.404;-0.038;2023-10-31T13:52:35;1.92;;;0.90;;
46230;SDS011;31949;51.404;-0.038;2023-10-31T13:55:04;3.15;;;0.90;;
46230;SDS011;31949;51.404;-0.038;2023-10-31T13:57:32;3.38;;;1.95;;
46230;SDS011;31949;51.404;-0.038;2023-10-31T13:59:59;3.63;;;1.20;;
46230;SDS011;31949;51.404;-0.038;2023-10-31T14:02:28;6.18;;;1.50;;
46230;SDS011;31949;51.404;-0.038;2023-10-31T14:04:55;4.85;;;1.23;;
46230;SDS011;31949;51.404;-0.038;2023-10-31T14:07:23;5.88;;;1.20;;
46230;SDS011;31949;51.404;-0.038;2023-10-31T14:09:51;2.95;;;0.88;;
46230;SDS011;31949;51.404;-0.038;2023-10-31T14:12:19;2.28;;;0.60;;
46230;SDS011;31949;51.404;-0.038;2023-10-31T14:14:46;4.88;;;0.90;;
46230;SDS011;31949;51.404;-0.038;2023-10-31T14:17:16;2.97;;;0.60;;
46230;SDS011;31949;51.404;-0.038;2023-10-31T14:19:43;3.28;;;1.10;;
46230;SDS011;31949;51.404;-0.038;2023-10-31T14:22:12;1.80;;;0.93;;
46230;SDS011;31949;51.404;-0.038;2023-10-31T14:24:40;2.67;;;0.60;;
46230;SDS011;31949;51.404;-0.038;2023-10-31T14:27:07;2.30;;;0.80;;
46230;SDS011;31949;51.404;-0.038;2023-10-31T14:29:35;4.25;;;0.90;;
46230;SDS011;31949;51.404;-0.038;2023-10-31T14:32:06;1.67;;;0.60;;
46230;SDS011;31949;51.404;-0.038;2023-10-31T14:34:34;1.73;;;0.75;;
46230;SDS011;31949;51.404;-0.038;2023-10-31T14:37:02;2.78;;;0.93;;
46230;SDS011;31949;51.404;-0.038;2023-10-31T14:39:29;2.20;;;0.93;;
46230;SDS011;31949;51.404;-0.038;2023-10-31T14:41:56;2.10;;;0.65;;
46230;SDS011;31949;51.404;-0.038;2023-10-31T14:44:24;4.07;;;1.00;;
46230;SDS011;31949;51.404;-0.038;2023-10-31T14:46:51;3.75;;;1.25;;
46230;SDS011;31949;51.404;-0.038;2023-10-31T14:49:20;2.17;;;1.15;;